Time;durP1;ratioP1;P1;durP2;ratioP2;P2;SDS_P1;SDS_P2;PMS_P1;PMS_P2;Temp;Humidity;BMP_temperature;BMP_pressure;BME280_temperature;BME280_humidity;BME280_pressure;Samples;Min_cycle;Max_cycle;Signal;HPM_P1;HPM_P2
2023/09/27 00:00:14;;;;;;;1999.90;999.90;;;10.50;99.90;;;;;;5098081;28;20162;-77
2023/09/27 00:02:43;;;;;;;1999.90;999.90;;;10.50;99.90;;;;;;5096082;28;20105;-77
2023/09/27 00:05:11;;;;;;;1999.90;999.90;;;10.40;99.90;;;;;;5080991;28;20811;-77
2023/09/27 00:07:38;;;;;;;1999.90;999.90;;;10.40;99.90;;;;;;5077335;28;20032;-77
2023/09/27 00:10:05;;;;;;;1999.90;999.90;;;10.40;99.90;;;;;;5075770;28;20033;-77
2023/09/27 00:12:31;;;;;;;1999.90;999.90;;;10.30;99.90;;;;;;5076587;28;20103;-77
2023/09/27 00:14:57;;;;;;;1999.90;999.90;;;10.20;99.90;;;;;;5077404;28;20151;-77
2023/09/27 00:17:23;;;;;;;1999.90;999.90;;;10.30;99.90;;;;;;5076942;28;20063;-77
2023/09/27 00:19:49;;;;;;;1999.90;999.90;;;10.20;99.90;;;;;;5075523;28;20040;-76
2023/09/27 00:22:15;;;;;;;1999.90;999.90;;;10.20;99.90;;;;;;5076920;28;20135;-77
2023/09/27 00:24:41;;;;;;;1999.90;999.90;;;10.20;99.90;;;;;;5077275;28;20033;-76
2023/09/27 00:27:07;;;;;;;1999.90;999.90;;;10.20;99.90;;;;;;5076972;28;20043;-77
2023/09/27 00:29:34;;;;;;;1999.90;999.90;;;10.20;99.90;;;;;;5075621;28;20049;-77
2023/09/27 00:32:00;;;;;;;1999.90;999.90;;;10.30;99.90;;;;;;5075302;28;20565;-77
2023/09/27 00:34:25;;;;;;;1999.90;999.90;;;10.30;99.90;;;;;;5077083;28;20071;-76
2023/09/27 00:36:51;;;;;;;1999.90;999.90;;;10.30;99.90;;;;;;5076611;28;20067;-77
2023/09/27 00:39:17;;;;;;;1999.90;999.90;;;10.40;99.90;;;;;;5076990;28;20097;-76
2023/09/27 00:41:42;;;;;;;1999.90;999.90;;;10.30;99.90;;;;;;5076732;28;20525;-76
2023/09/27 00:44:08;;;;;;;1999.90;999.90;;;10.20;99.90;;;;;;5086633;28;20123;-76
2023/09/27 00:46:34;;;;;;;1999.90;999.90;;;10.20;99.90;;;;;;5096927;28;20024;-77
2023/09/27 00:49:00;;;;;;;1999.90;999.90;;;10.20;99.90;;;;;;5097223;28;20036;-77
2023/09/27 00:51:26;;;;;;;1999.90;999.90;;;10.20;99.90;;;;;;5095186;28;20112;-77
2023/09/27 00:53:54;;;;;;;1999.90;999.90;;;10.10;99.90;;;;;;5096977;28;20500;-77
2023/09/27 00:56:20;;;;;;;1999.90;999.90;;;10.00;99.90;;;;;;5096406;28;20028;-77
2023/09/27 00:58:47;;;;;;;1999.90;999.90;;;9.90;99.90;;;;;;5096504;28;20371;-77
2023/09/27 01:01:12;;;;;;;1999.90;999.90;;;10.00;99.90;;;;;;5096909;28;20509;-77
2023/09/27 01:03:38;;;;;;;1999.90;999.90;;;10.00;99.90;;;;;;5096365;28;20048;-77
2023/09/27 01:06:04;;;;;;;1999.90;999.90;;;9.90;99.90;;;;;;5096507;28;20051;-76
2023/09/27 01:08:30;;;;;;;1999.90;999.90;;;9.90;99.90;;;;;;5096838;28;20029;-77
2023/09/27 01:10:55;;;;;;;1999.90;999.90;;;9.80;99.90;;;;;;5095349;28;20029;-77
2023/09/27 01:13:21;;;;;;;1999.90;999.90;;;9.80;99.90;;;;;;5096598;28;20064;-77
2023/09/27 01:15:47;;;;;;;1999.90;999.90;;;9.80;99.90;;;;;;5094060;28;20029;-77
2023/09/27 01:18:13;;;;;;;1999.90;999.90;;;9.80;99.90;;;;;;5096533;28;20051;-77
2023/09/27 01:20:38;;;;;;;1999.90;999.90;;;9.70;99.90;;;;;;5096745;28;20028;-77
2023/09/27 01:23:05;;;;;;;1999.90;999.90;;;9.70;99.90;;;;;;5082025;28;20037;-77
2023/09/27 01:25:40;;;;;;;1999.90;999.90;;;9.70;99.90;;;;;;5073645;28;20028;-75
2023/09/27 01:28:09;;;;;;;1999.90;999.90;;;9.80;99.90;;;;;;5075715;28;20048;-76
2023/09/27 01:30:36;;;;;;;1999.90;999.90;;;9.80;99.90;;;;;;5055763;28;20036;-77
2023/09/27 01:33:10;;;;;;;1999.90;999.90;;;9.80;99.90;;;;;;5096234;28;20509;-76
2023/09/27 01:35:40;;;;;;;1999.90;999.90;;;9.80;99.90;;;;;;5096007;28;20032;-77
2023/09/27 01:38:06;;;;;;;1999.90;999.90;;;9.80;99.90;;;;;;5078424;28;20051;-77
2023/09/27 01:40:35;;;;;;;1999.90;999.90;;;9.70;99.90;;;;;;5074506;28;20036;-76
2023/09/27 01:43:02;;;;;;;1999.90;999.90;;;9.70;99.90;;;;;;5055336;28;20495;-77
2023/09/27 01:45:29;;;;;;;1999.90;999.90;;;9.70;99.90;;;;;;5055503;28;20580;-77
2023/09/27 01:47:56;;;;;;;1999.90;999.90;;;9.70;99.90;;;;;;5070671;28;20033;-77
2023/09/27 01:50:24;;;;;;;1999.90;999.90;;;9.70;99.90;;;;;;5055271;28;20033;-77
2023/09/27 01:52:54;;;;;;;1999.90;999.90;;;9.70;99.90;;;;;;5107669;27;20032;-77
2023/09/27 01:55:20;;;;;;;1999.90;999.90;;;9.60;99.90;;;;;;5094507;28;20498;-77
2023/09/27 01:57:46;;;;;;;1999.90;999.90;;;9.60;99.90;;;;;;5089963;28;20477;-76
2023/09/27 02:00:14;;;;;;;1999.90;999.90;;;9.60;99.90;;;;;;5075691;28;20052;-77
2023/09/27 02:03:00;;;;;;;1999.90;999.90;;;9.60;99.90;;;;;;5091188;22;20041;-73
2023/09/27 02:05:27;;;;;;;1999.90;999.90;;;9.60;99.90;;;;;;5054084;28;20169;-75
2023/09/27 02:07:53;;;;;;;1999.90;999.90;;;9.60;99.90;;;;;;5054294;28;20108;-73
2023/09/27 02:10:18;;;;;;;1999.90;999.90;;;9.60;99.90;;;;;;5054933;28;20116;-73
2023/09/27 02:12:44;;;;;;;1999.90;999.90;;;9.60;99.90;;;;;;5057316;28;20434;-73
2023/09/27 02:15:11;;;;;;;1999.90;999.90;;;9.60;99.90;;;;;;5074815;28;20390;-72
2023/09/27 02:17:40;;;;;;;1999.90;999.90;;;9.60;99.90;;;;;;5074584;28;20086;-74
2023/09/27 02:20:09;;;;;;;1999.90;999.90;;;9.70;99.90;;;;;;5074903;28;20029;-72
2023/09/27 02:22:35;;;;;;;1999.90;999.90;;;9.70;99.90;;;;;;5074715;28;20037;-74
2023/09/27 02:25:01;;;;;;;1999.90;999.90;;;9.70;99.90;;;;;;5074605;28;20502;-73
2023/09/27 02:27:26;;;;;;;1999.90;999.90;;;9.70;99.90;;;;;;5075508;28;20037;-73
2023/09/27 02:29:52;;;;;;;1999.90;999.90;;;9.70;99.90;;;;;;5095100;28;20963;-73
2023/09/27 02:32:17;;;;;;;1999.90;999.90;;;9.70;99.90;;;;;;5095147;28;20499;-73
2023/09/27 02:34:44;;;;;;;1999.90;999.90;;;9.70;99.90;;;;;;5094872;28;20058;-73
2023/09/27 02:37:09;;;;;;;1999.90;999.90;;;9.70;99.90;;;;;;5093152;28;20033;-73
2023/09/27 02:39:35;;;;;;;1999.90;999.90;;;9.70;99.90;;;;;;5076103;28;20037;-73
2023/09/27 02:42:00;;;;;;;1999.90;999.90;;;9.60;99.90;;;;;;5074722;28;20047;-75
2023/09/27 02:44:26;;;;;;;1999.90;999.90;;;9.60;99.90;;;;;;5072990;28;20029;-73
2023/09/27 02:46:53;;;;;;;1999.90;999.90;;;9.50;99.90;;;;;;5074036;28;20037;-73
2023/09/27 02:49:20;;;;;;;1999.90;999.90;;;9.50;99.90;;;;;;5074566;28;20299;-73
2023/09/27 02:51:47;;;;;;;1999.90;999.90;;;9.40;99.90;;;;;;5074539;28;20446;-73
2023/09/27 02:54:16;;;;;;;1999.90;999.90;;;9.40;99.90;;;;;;5074180;28;20029;-72
2023/09/27 02:56:45;;;;;;;1999.90;999.90;;;9.50;99.90;;;;;;5072463;28;20028;-74
2023/09/27 02:59:11;;;;;;;1999.90;999.90;;;9.40;99.90;;;;;;5074454;28;20033;-73
2023/09/27 03:01:40;;;;;;;1999.90;999.90;;;9.40;99.90;;;;;;5074152;28;20486;-73
2023/09/27 03:04:10;;;;;;;1999.90;999.90;;;9.30;99.90;;;;;;5072569;28;20041;-73
2023/09/27 03:06:37;;;;;;;1999.90;999.90;;;9.30;99.90;;;;;;5073896;28;20068;-73
2023/09/27 03:09:03;;;;;;;1999.90;999.90;;;9.30;99.90;;;;;;5075778;28;20545;-73
2023/09/27 03:11:29;;;;;;;1999.90;999.90;;;9.20;99.90;;;;;;5094241;28;20039;-73
2023/09/27 03:13:55;;;;;;;1999.90;999.90;;;9.20;99.90;;;;;;5094190;28;20041;-74
2023/09/27 03:16:21;;;;;;;1999.90;999.90;;;9.20;99.90;;;;;;5094259;28;20032;-73
2023/09/27 03:18:47;;;;;;;1999.90;999.90;;;9.10;99.90;;;;;;5077890;28;20075;-72
2023/09/27 03:21:12;;;;;;;1999.90;999.90;;;9.10;99.90;;;;;;5074266;28;20065;-73
2023/09/27 03:23:38;;;;;;;1999.90;999.90;;;9.10;99.90;;;;;;5073901;28;20068;-73
2023/09/27 03:26:04;;;;;;;1999.90;999.90;;;9.10;99.90;;;;;;5074021;28;20108;-73
2023/09/27 03:28:30;;;;;;;1999.90;999.90;;;9.00;99.90;;;;;;5072442;28;20037;-75
2023/09/27 03:30:55;;;;;;;1999.90;999.90;;;9.00;99.90;;;;;;5074050;28;20066;-73
2023/09/27 03:33:21;;;;;;;1999.90;999.90;;;9.00;99.90;;;;;;5089311;28;20037;-72
2023/09/27 03:35:47;;;;;;;1999.90;999.90;;;8.90;99.90;;;;;;5092442;28;20031;-73
2023/09/27 03:38:12;;;;;;;1999.90;999.90;;;9.00;99.90;;;;;;5094273;28;20040;-73
2023/09/27 03:40:41;;;;;;;1999.90;999.90;;;9.00;99.90;;;;;;5092718;28;20033;-73
2023/09/27 03:43:07;;;;;;;1999.90;999.90;;;8.90;99.90;;;;;;5093855;28;20036;-74
2023/09/27 03:45:35;;;;;;;1999.90;999.90;;;8.90;99.90;;;;;;5076158;28;20494;-73
2023/09/27 03:48:02;;;;;;;1999.90;999.90;;;8.80;99.90;;;;;;5074707;28;20056;-73
2023/09/27 03:50:28;;;;;;;1999.90;999.90;;;8.80;99.90;;;;;;5076986;28;20520;-73
2023/09/27 03:52:58;;;;;;;1999.90;999.90;;;8.80;99.90;;;;;;5092137;28;20091;-73
2023/09/27 03:55:24;;;;;;;1999.90;999.90;;;8.80;99.90;;;;;;5092635;28;20028;-73
2023/09/27 03:57:49;;;;;;;1999.90;999.90;;;8.80;99.90;;;;;;5076806;28;20799;-73
2023/09/27 04:00:17;;;;;;;1999.90;999.90;;;8.80;99.90;;;;;;5077238;28;20039;-73
2023/09/27 04:02:44;;;;;;;1999.90;999.90;;;8.80;99.90;;;;;;5092232;28;20059;-73
2023/09/27 04:05:10;;;;;;;1999.90;999.90;;;8.70;99.90;;;;;;5076905;28;20390;-73
2023/09/27 04:07:36;;;;;;;1999.90;999.90;;;8.70;99.90;;;;;;5076519;28;20478;-73
2023/09/27 04:10:03;;;;;;;1999.90;999.90;;;8.80;99.90;;;;;;5077071;28;20025;-73
2023/09/27 04:12:28;;;;;;;1999.90;999.90;;;8.80;99.90;;;;;;5076681;28;20048;-72
2023/09/27 04:14:55;;;;;;;1999.90;999.90;;;8.80;99.90;;;;;;5076747;28;20036;-73
2023/09/27 04:17:21;;;;;;;1999.90;999.90;;;8.70;99.90;;;;;;5076542;28;20043;-73
2023/09/27 04:19:54;;;;;;;1999.90;999.90;;;8.70;99.90;;;;;;5076949;28;20557;-73
2023/09/27 04:22:19;;;;;;;1999.90;999.90;;;8.70;99.90;;;;;;5076954;28;20031;-73
2023/09/27 04:24:45;;;;;;;1999.90;999.90;;;8.70;99.90;;;;;;5075961;28;20033;-73
2023/09/27 04:27:11;;;;;;;1999.90;999.90;;;8.70;99.90;;;;;;5076543;28;20041;-73
2023/09/27 04:29:37;;;;;;;1999.90;999.90;;;8.80;99.90;;;;;;5076764;28;20033;-72
2023/09/27 04:32:02;;;;;;;1999.90;999.90;;;8.80;99.90;;;;;;5076634;28;20059;-74
2023/09/27 04:34:28;;;;;;;1999.90;999.90;;;8.80;99.90;;;;;;5091858;28;20062;-73
2023/09/27 04:36:54;;;;;;;1999.90;999.90;;;8.90;99.90;;;;;;5076277;28;20029;-74
2023/09/27 04:39:20;;;;;;;1999.90;999.90;;;8.80;99.90;;;;;;5076658;28;20487;-74
2023/09/27 04:41:46;;;;;;;1999.90;999.90;;;8.80;99.90;;;;;;5091820;28;20064;-74
2023/09/27 04:44:13;;;;;;;1999.90;999.90;;;8.80;99.90;;;;;;5076432;28;20029;-74
2023/09/27 04:46:38;;;;;;;1999.90;999.90;;;8.80;99.90;;;;;;5076218;28;20518;-73
2023/09/27 04:49:04;;;;;;;1999.90;999.90;;;8.80;99.90;;;;;;5076029;28;20048;-74
2023/09/27 04:51:30;;;;;;;1999.90;999.90;;;8.80;99.90;;;;;;5076331;28;20529;-75
2023/09/27 04:54:00;;;;;;;1999.90;999.90;;;8.70;99.90;;;;;;5076175;28;20033;-76
2023/09/27 04:56:26;;;;;;;1999.90;999.90;;;8.70;99.90;;;;;;5075797;28;20060;-74
2023/09/27 04:58:52;;;;;;;1999.90;999.90;;;8.60;99.90;;;;;;5075112;28;20082;-74
2023/09/27 05:01:18;;;;;;;1999.90;999.90;;;8.60;99.90;;;;;;5076001;28;20460;-74
2023/09/27 05:03:43;;;;;;;1999.90;999.90;;;8.60;99.90;;;;;;5075537;28;20055;-74
2023/09/27 05:06:09;;;;;;;1999.90;999.90;;;8.70;99.90;;;;;;5075785;28;20037;-74
2023/09/27 05:08:34;;;;;;;1999.90;999.90;;;8.70;99.90;;;;;;5074456;28;20045;-74
2023/09/27 05:11:00;;;;;;;1999.90;999.90;;;8.70;99.90;;;;;;5080265;28;20032;-74
2023/09/27 05:13:26;;;;;;;1999.90;999.90;;;8.70;99.90;;;;;;5094623;28;20163;-74
2023/09/27 05:15:52;;;;;;;1999.90;999.90;;;8.70;99.90;;;;;;5083682;28;20136;-74
2023/09/27 05:18:23;;;;;;;1999.90;999.90;;;8.70;99.90;;;;;;5075292;28;20032;-77
2023/09/27 05:20:49;;;;;;;1999.90;999.90;;;8.70;99.90;;;;;;5074421;28;20510;-74
2023/09/27 05:23:15;;;;;;;1999.90;999.90;;;8.70;99.90;;;;;;5075571;28;20040;-74
2023/09/27 05:25:41;;;;;;;1999.90;999.90;;;8.80;99.90;;;;;;5075616;28;20462;-75
2023/09/27 05:28:07;;;;;;;1999.90;999.90;;;8.90;99.90;;;;;;5075350;28;20098;-74
2023/09/27 05:30:32;;;;;;;1999.90;999.90;;;9.10;99.90;;;;;;5075563;28;20029;-74
2023/09/27 05:32:58;;;;;;;1999.90;999.90;;;9.10;99.90;;;;;;5075369;28;20033;-74
2023/09/27 05:35:25;;;;;;;1999.90;999.90;;;9.30;99.90;;;;;;5075783;28;20025;-79
2023/09/27 05:37:51;;;;;;;1999.90;999.90;;;9.30;99.90;;;;;;5074466;28;20041;-74
2023/09/27 05:40:16;;;;;;;1999.90;999.90;;;9.20;99.90;;;;;;5073997;28;20536;-73
2023/09/27 05:42:42;;;;;;;1999.90;999.90;;;9.20;99.90;;;;;;5075364;28;20482;-74
2023/09/27 05:45:12;;;;;;;1999.90;999.90;;;9.10;99.90;;;;;;5075538;28;20036;-74
2023/09/27 05:47:39;;;;;;;1999.90;999.90;;;9.10;99.90;;;;;;5075213;28;20037;-76
2023/09/27 05:50:08;;;;;;;1999.90;999.90;;;9.10;99.90;;;;;;5075527;28;20542;-73
2023/09/27 05:52:34;;;;;;;1999.90;999.90;;;9.20;99.90;;;;;;5075265;28;20083;-75
2023/09/27 05:55:00;;;;;;;1999.90;999.90;;;9.20;99.90;;;;;;5075511;28;20080;-74
2023/09/27 05:57:25;;;;;;;1999.90;999.90;;;9.30;99.90;;;;;;5074939;28;20116;-74
2023/09/27 05:59:51;;;;;;;1999.90;999.90;;;9.30;99.90;;;;;;5075215;28;20152;-75
2023/09/27 06:02:17;;;;;;;1999.90;999.90;;;9.40;99.90;;;;;;5074551;28;20033;-77
2023/09/27 06:04:43;;;;;;;1999.90;999.90;;;9.50;99.90;;;;;;5070447;28;20099;-77
2023/09/27 06:07:13;;;;;;;1999.90;999.90;;;9.60;99.90;;;;;;5072618;28;20120;-75
2023/09/27 06:09:42;;;;;;;1999.90;999.90;;;9.70;99.90;;;;;;5074822;28;20052;-76
2023/09/27 06:12:10;;;;;;;1999.90;999.90;;;9.80;99.90;;;;;;5074256;28;20037;-76
2023/09/27 06:14:35;;;;;;;1999.90;999.90;;;9.90;99.90;;;;;;5075045;28;20051;-77
2023/09/27 06:17:02;;;;;;;1999.90;999.90;;;10.00;99.90;;;;;;5074902;28;20102;-78
2023/09/27 06:19:28;;;;;;;1999.90;999.90;;;10.00;99.90;;;;;;5075515;28;20454;-78
2023/09/27 06:21:54;;;;;;;1999.90;999.90;;;10.10;99.90;;;;;;5075095;28;20040;-77
2023/09/27 06:24:19;;;;;;;1999.90;999.90;;;10.10;99.90;;;;;;5074834;28;20041;-83
2023/09/27 06:26:45;;;;;;;1999.90;999.90;;;10.20;99.90;;;;;;5079135;28;20037;-83
2023/09/27 06:29:10;;;;;;;1999.90;999.90;;;10.20;99.90;;;;;;5074933;28;20460;-78
2023/09/27 06:31:36;;;;;;;1999.90;999.90;;;10.20;99.90;;;;;;5074790;28;20427;-77
2023/09/27 06:34:01;;;;;;;1999.90;999.90;;;10.20;99.90;;;;;;5073514;28;20037;-78
2023/09/27 06:36:34;;;;;;;1999.90;999.90;;;10.20;99.90;;;;;;5069123;28;20073;-77
2023/09/27 06:39:00;;;;;;;1999.90;999.90;;;10.10;99.90;;;;;;5073727;28;20537;-77
2023/09/27 06:41:26;;;;;;;1999.90;999.90;;;10.20;99.90;;;;;;5057209;28;20081;-79
2023/09/27 06:43:53;;;;;;;1999.90;999.90;;;10.10;99.90;;;;;;5072927;28;20121;-80
2023/09/27 06:46:19;;;;;;;1999.90;999.90;;;10.30;99.90;;;;;;5073747;28;20029;-78
2023/09/27 06:48:45;;;;;;;1999.90;999.90;;;10.40;99.90;;;;;;5078573;28;20391;-78
2023/09/27 06:51:13;;;;;;;1999.90;999.90;;;10.20;99.90;;;;;;5095166;28;20382;-77
2023/09/27 06:53:39;;;;;;;1999.90;999.90;;;10.30;99.90;;;;;;5089167;28;20469;-81
2023/09/27 06:56:05;;;;;;;1999.90;999.90;;;10.30;99.90;;;;;;5074378;28;20040;-77
2023/09/27 06:58:31;;;;;;;1999.90;999.90;;;10.40;99.90;;;;;;5076319;28;20029;-80
2023/09/27 07:00:57;;;;;;;1999.90;999.90;;;10.40;99.90;;;;;;5080492;28;20032;-80
2023/09/27 07:03:27;;;;;;;1999.90;999.90;;;10.50;99.90;;;;;;5078530;28;20045;-76
2023/09/27 07:05:54;;;;;;;1999.90;999.90;;;10.60;99.90;;;;;;5081581;28;20132;-75
2023/09/27 07:08:20;;;;;;;1999.90;999.90;;;10.70;99.90;;;;;;5079640;28;20033;-79
2023/09/27 07:10:46;;;;;;;1999.90;999.90;;;10.80;99.90;;;;;;5081221;28;20024;-79
2023/09/27 07:13:12;;;;;;;1999.90;999.90;;;10.90;99.90;;;;;;5082119;28;20037;-80
2023/09/27 07:15:38;;;;;;;1999.90;999.90;;;11.00;99.90;;;;;;5070053;28;20515;-80
2023/09/27 07:18:05;;;;;;;1999.90;999.90;;;11.10;99.90;;;;;;5089805;28;20040;-80
2023/09/27 07:20:36;;;;;;;1999.90;999.90;;;11.20;99.90;;;;;;5095101;28;20024;-80
2023/09/27 07:23:07;;;;;;;1999.90;999.90;;;11.30;99.90;;;;;;5096683;28;20024;-80
2023/09/27 07:25:34;;;;;;;1999.90;999.90;;;11.40;99.90;;;;;;5098532;28;20075;-80
2023/09/27 07:28:03;;;;;;;1999.90;999.90;;;11.50;99.90;;;;;;5096473;28;20036;-80
2023/09/27 07:30:29;;;;;;;1999.90;999.90;;;11.60;99.90;;;;;;5089505;28;20029;-80
2023/09/27 07:32:55;;;;;;;1999.90;999.90;;;11.70;99.90;;;;;;5076124;28;20528;-80
2023/09/27 07:35:21;;;;;;;1999.90;999.90;;;11.90;99.90;;;;;;5075810;28;20483;-80
2023/09/27 07:37:47;;;;;;;1999.90;999.90;;;12.00;99.90;;;;;;5075741;28;20029;-80
2023/09/27 07:40:14;;;;;;;1999.90;999.90;;;12.00;99.90;;;;;;5083158;28;21187;-80
2023/09/27 07:42:44;;;;;;;1999.90;999.90;;;12.10;99.90;;;;;;5097179;28;20043;-80
2023/09/27 07:45:32;;;;;;;1999.90;999.90;;;12.10;99.90;;;;;;5097866;28;20104;-80
2023/09/27 07:47:58;;;;;;;1999.90;999.90;;;12.20;99.90;;;;;;5097613;28;20041;-80
2023/09/27 07:50:28;;;;;;;1999.90;999.90;;;12.50;99.90;;;;;;5096615;28;20032;-80
2023/09/27 07:52:54;;;;;;;1999.90;999.90;;;12.50;99.90;;;;;;5097892;28;20039;-80
2023/09/27 07:55:21;;;;;;;1999.90;999.90;;;12.60;99.90;;;;;;5098372;28;20068;-80
2023/09/27 07:57:47;;;;;;;1999.90;999.90;;;12.80;99.90;;;;;;5097625;28;20033;-80
2023/09/27 08:00:18;;;;;;;1999.90;999.90;;;12.90;99.90;;;;;;5090691;28;20139;-80
2023/09/27 08:02:45;;;;;;;1999.90;999.90;;;13.00;99.90;;;;;;5076958;28;20797;-80
2023/09/27 08:05:14;;;;;;;1999.90;999.90;;;13.10;99.90;;;;;;5075477;28;20037;-80
2023/09/27 08:07:40;;;;;;;1999.90;999.90;;;13.30;99.90;;;;;;5075475;28;20044;-80
2023/09/27 08:10:07;;;;;;;1999.90;999.90;;;13.30;99.90;;;;;;5077178;28;20055;-80
2023/09/27 08:12:34;;;;;;;1999.90;999.90;;;13.50;99.90;;;;;;5105315;28;20041;-80
2023/09/27 08:15:01;;;;;;;1999.90;999.90;;;13.70;99.90;;;;;;5097241;28;20040;-79
2023/09/27 08:17:26;;;;;;;1999.90;999.90;;;13.70;99.90;;;;;;5097069;28;20032;-79
2023/09/27 08:19:52;;;;;;;1999.90;999.90;;;13.90;99.90;;;;;;5078198;28;20029;-80
2023/09/27 08:22:18;;;;;;;1999.90;999.90;;;13.90;99.90;;;;;;5077092;28;20041;-80
2023/09/27 08:24:44;;;;;;;1999.90;999.90;;;14.10;99.90;;;;;;5092467;28;20037;-80
2023/09/27 08:27:10;;;;;;;1999.90;999.90;;;14.20;99.90;;;;;;5076850;28;20033;-80
2023/09/27 08:29:35;;;;;;;1999.90;999.90;;;14.30;99.90;;;;;;5077084;28;20083;-80
2023/09/27 08:32:01;;;;;;;1999.90;999.90;;;14.40;99.90;;;;;;5088185;28;20032;-81
2023/09/27 08:34:27;;;;;;;1999.90;999.90;;;14.50;99.90;;;;;;5097124;28;20040;-80
2023/09/27 08:36:53;;;;;;;1999.90;999.90;;;14.60;99.90;;;;;;5096838;28;20025;-80
2023/09/27 08:39:19;;;;;;;1999.90;999.90;;;14.70;99.90;;;;;;5076458;28;20478;-80
2023/09/27 08:41:44;;;;;;;1999.90;999.90;;;14.80;99.90;;;;;;5075443;28;20466;-80
2023/09/27 08:44:11;;;;;;;1999.90;999.90;;;14.90;99.90;;;;;;5092136;28;20433;-80
2023/09/27 08:46:38;;;;;;;1999.90;999.90;;;15.00;99.90;;;;;;5080191;28;20025;-80
2023/09/27 08:49:04;;;;;;;1999.90;999.90;;;14.90;99.90;;;;;;5078849;28;20097;-78
2023/09/27 08:51:30;;;;;;;1999.90;999.90;;;15.20;99.90;;;;;;5089630;28;20025;-85
2023/09/27 08:53:56;;;;;;;1999.90;999.90;;;15.30;99.90;;;;;;5079832;28;20095;-84
2023/09/27 08:56:27;;;;;;;1999.90;999.90;;;15.50;99.90;;;;;;5079586;28;20060;-83
2023/09/27 08:58:53;;;;;;;1999.90;999.90;;;15.50;99.90;;;;;;5078044;28;20048;-83
2023/09/27 09:01:19;;;;;;;1999.90;999.90;;;15.60;99.90;;;;;;5096380;28;20604;-78
2023/09/27 09:03:46;;;;;;;1999.90;999.90;;;15.70;99.90;;;;;;5101532;28;20076;-89
2023/09/27 09:06:12;;;;;;;1999.90;999.90;;;15.90;99.90;;;;;;5098731;28;20024;-83
2023/09/27 09:08:42;;;;;;;1999.90;999.90;;;16.10;99.90;;;;;;5099157;28;20040;-83
2023/09/27 09:11:12;;;;;;;1999.90;999.90;;;16.10;99.90;;;;;;5100562;28;20036;-81
2023/09/27 09:14:05;;;;;;;1999.90;999.90;;;16.30;99.90;;;;;;5096105;28;20045;-79
2023/09/27 09:16:39;;;;;;;1999.90;999.90;;;16.50;99.90;;;;;;5094822;28;20025;-79
2023/09/27 09:19:24;;;;;;;1999.90;999.90;;;16.60;99.90;;;;;;5079556;28;20033;-79
2023/09/27 09:21:56;;;;;;;1999.90;999.90;;;16.80;99.90;;;;;;5082030;28;20048;-80
2023/09/27 09:24:22;;;;;;;1999.90;999.90;;;17.00;99.90;;;;;;5094765;28;20047;-80
2023/09/27 09:26:47;;;;;;;1999.90;999.90;;;17.10;99.90;;;;;;5078917;28;20033;-79
2023/09/27 09:29:13;;;;;;;1999.90;999.90;;;17.20;99.90;;;;;;5079234;28;20087;-79
2023/09/27 09:31:39;;;;;;;1999.90;999.90;;;17.20;99.90;;;;;;5094787;28;20029;-79
2023/09/27 09:34:08;;;;;;;1999.90;999.90;;;17.40;99.90;;;;;;5096234;28;20045;-79
2023/09/27 09:36:36;;;;;;;1999.90;999.90;;;17.60;99.90;;;;;;5077287;28;20086;-79
2023/09/27 09:39:14;;;;;;;1999.90;999.90;;;17.70;99.90;;;;;;5079054;28;20033;-79
2023/09/27 09:42:00;;;;;;;1999.90;999.90;;;17.70;99.90;;;;;;5077320;28;20519;-79
2023/09/27 09:44:25;;;;;;;1999.90;999.90;;;18.10;99.90;;;;;;5096484;28;20068;-79
2023/09/27 09:46:51;;;;;;;1999.90;999.90;;;18.30;99.90;;;;;;5080525;28;20509;-79
2023/09/27 09:49:17;;;;;;;1999.90;999.90;;;18.40;99.90;;;;;;5080970;28;20044;-79
2023/09/27 09:51:52;;;;;;;1999.90;999.90;;;18.40;99.90;;;;;;5086783;28;20504;-79
2023/09/27 09:54:28;;;;;;;1999.90;999.90;;;18.40;99.90;;;;;;5101157;28;20021;-80
2023/09/27 09:56:57;;;;;;;1999.90;999.90;;;18.60;99.90;;;;;;5079481;28;20024;-80
2023/09/27 09:59:31;;;;;;;1999.90;999.90;;;18.70;99.90;;;;;;5079315;28;20025;-79
2023/09/27 10:01:59;;;;;;;1999.90;999.90;;;18.80;99.90;;;;;;5093184;28;20039;-78
2023/09/27 10:04:26;;;;;;;1999.90;999.90;;;18.90;99.90;;;;;;5071457;28;20044;-78
2023/09/27 10:06:53;;;;;;;1999.90;999.90;;;19.00;99.90;;;;;;5073707;28;20091;-78
2023/09/27 10:09:20;;;;;;;1999.90;999.90;;;18.90;99.90;;;;;;5074196;28;20032;-79
2023/09/27 10:11:46;;;;;;;1999.90;999.90;;;18.90;99.90;;;;;;5083079;28;20500;-78
2023/09/27 10:14:12;;;;;;;1999.90;999.90;;;19.00;99.90;;;;;;5083158;28;20126;-78
2023/09/27 10:16:38;;;;;;;1999.90;999.90;;;19.10;99.90;;;;;;5090079;28;20036;-78
2023/09/27 10:19:05;;;;;;;1999.90;999.90;;;19.30;99.90;;;;;;5076640;28;20499;-78
2023/09/27 10:21:31;;;;;;;1999.90;999.90;;;19.40;99.90;;;;;;5077052;28;20021;-82
2023/09/27 10:23:58;;;;;;;1999.90;999.90;;;19.50;99.90;;;;;;5077267;28;20036;-81
2023/09/27 10:26:27;;;;;;;1999.90;999.90;;;19.60;99.90;;;;;;5076567;28;20079;-79
2023/09/27 10:29:07;;;;;;;1999.90;999.90;;;19.80;99.90;;;;;;5077136;28;20491;-79
2023/09/27 10:31:56;;;;;;;1999.90;999.90;;;19.90;99.90;;;;;;5089724;28;20041;-82
2023/09/27 10:34:27;;;;;;;1999.90;999.90;;;20.00;99.90;;;;;;5068989;22;20088;-77
2023/09/27 10:36:54;;;;;;;1999.90;999.90;;;20.20;99.90;;;;;;5089171;28;20453;-78
2023/09/27 10:39:20;;;;;;;1999.90;999.90;;;20.50;99.90;;;;;;5083031;28;20481;-80
2023/09/27 10:41:50;;;;;;;1999.90;999.90;;;20.60;99.90;;;;;;5095956;28;20036;-78
2023/09/27 10:44:32;;;;;;;1999.90;999.90;;;20.60;99.90;;;;;;5095130;28;20508;-78
2023/09/27 10:47:06;;;;;;;1999.90;999.90;;;20.70;99.90;;;;;;5094955;28;20041;-80
2023/09/27 10:49:38;;;;;;;1999.90;999.90;;;20.70;99.90;;;;;;5095632;28;20995;-77
2023/09/27 10:52:17;;;;;;;1999.90;999.90;;;20.90;99.90;;;;;;5091842;28;20123;-77
2023/09/27 10:54:43;;;;;;;1999.90;999.90;;;21.00;99.90;;;;;;5093545;28;20099;-77
2023/09/27 10:57:09;;;;;;;1999.90;999.90;;;21.20;99.90;;;;;;5094055;28;20513;-77
2023/09/27 10:59:35;;;;;;;1999.90;999.90;;;21.30;99.90;;;;;;5092671;28;20041;-78
2023/09/27 11:02:03;;;;;;;1999.90;999.90;;;21.50;99.90;;;;;;5083603;28;20040;-77
2023/09/27 11:04:32;;;;;;;1999.90;999.90;;;21.70;99.90;;;;;;5090650;28;20436;-77
2023/09/27 11:06:58;;;;;;;1999.90;999.90;;;21.90;99.90;;;;;;5095614;28;20033;-77
2023/09/27 11:09:24;;;;;;;1999.90;999.90;;;22.10;99.90;;;;;;5077833;28;20036;-77
2023/09/27 11:11:51;;;;;;;1999.90;999.90;;;22.10;99.90;;;;;;5087841;28;20036;-77
2023/09/27 11:14:42;;;;;;;1999.90;999.90;;;22.20;99.90;;;;;;5083812;28;20123;-76
2023/09/27 11:17:22;;;;;;;1999.90;999.90;;;22.20;99.90;;;;;;5077632;28;20039;-77
2023/09/27 11:19:48;;;;;;;1999.90;999.90;;;22.40;99.90;;;;;;5076196;28;20033;-76
2023/09/27 11:22:28;;;;;;;1999.90;999.90;;;22.40;99.90;;;;;;5077386;28;20041;-76
2023/09/27 11:24:53;;;;;;;1999.90;999.90;;;22.30;99.90;;;;;;5076048;28;20037;-77
2023/09/27 11:27:20;;;;;;;1999.90;999.90;;;22.50;99.90;;;;;;5075522;28;20055;-76
2023/09/27 11:29:53;;;;;;;1999.90;999.90;;;22.50;99.90;;;;;;5076078;28;20029;-76
2023/09/27 11:32:22;;;;;;;1999.90;999.90;;;22.80;99.90;;;;;;5094226;28;20573;-76
2023/09/27 11:34:55;;;;;;;1999.90;999.90;;;22.90;99.90;;;;;;5076295;28;20087;-77
2023/09/27 11:37:23;;;;;;;1999.90;999.90;;;22.90;99.90;;;;;;5079034;28;20753;-76
2023/09/27 11:39:50;;;;;;;1999.90;999.90;;;22.90;99.90;;;;;;5081840;28;20506;-76
2023/09/27 11:42:26;;;;;;;1999.90;999.90;;;23.10;99.90;;;;;;5097509;28;20504;-76
2023/09/27 11:45:03;;;;;;;1999.90;999.90;;;23.20;99.90;;;;;;5088684;28;20040;-77
2023/09/27 11:47:30;;;;;;;1999.90;999.90;;;23.20;99.90;;;;;;5076188;28;20041;-77
2023/09/27 11:49:55;;;;;;;1999.90;999.90;;;23.30;99.90;;;;;;5074815;28;20037;-77
2023/09/27 11:52:21;;;;;;;1999.90;999.90;;;23.50;99.90;;;;;;5094836;28;20425;-77
2023/09/27 11:54:46;;;;;;;1999.90;999.90;;;23.40;99.90;;;;;;5096528;28;20783;-76
2023/09/27 11:57:12;;;;;;;1999.90;999.90;;;23.60;99.90;;;;;;5096624;28;20512;-77
2023/09/27 11:59:37;;;;;;;1999.90;999.90;;;23.80;99.90;;;;;;5096722;28;20025;-77
2023/09/27 12:02:04;;;;;;;1999.90;999.90;;;23.90;99.90;;;;;;5078788;28;20111;-76
2023/09/27 12:04:29;;;;;;;1999.90;999.90;;;24.10;99.90;;;;;;5074011;28;20040;-77